sensor_id;sensor_type;location;lat;lon;timestamp;pressure;altitude;pressure_sealevel;temperature;humidity
62248;BME280;48237;50.140;8.486;2022-10-16T00:00:41;99313.78;;;14.70;100.00
62248;BME280;48237;50.140;8.486;2022-10-16T00:03:08;99302.45;;;15.17;100.00
62248;BME280;48237;50.140;8.486;2022-10-16T00:05:39;99296.48;;;15.56;100.00
62248;BME280;48237;50.140;8.486;2022-10-16T00:08:06;99297.60;;;15.33;100.00
62248;BME280;48237;50.140;8.486;2022-10-16T00:10:34;99284.70;;;15.38;100.00
62248;BME280;48237;50.140;8.486;2022-10-16T00:13:02;99289.63;;;15.46;100.00
62248;BME280;48237;50.140;8.486;2022-10-16T00:15:30;99290.84;;;15.21;100.00
62248;BME280;48237;50.140;8.486;2022-10-16T00:17:57;99296.62;;;15.44;100.00
62248;BME280;48237;50.140;8.486;2022-10-16T00:20:24;99302.57;;;15.62;100.00
62248;BME280;48237;50.140;8.486;2022-10-16T00:22:51;99302.00;;;15.49;100.00
62248;BME280;48237;50.140;8.486;2022-10-16T00:25:18;99299.85;;;15.10;100.00
62248;BME280;48237;50.140;8.486;2022-10-16T00:27:45;99298.56;;;15.29;100.00
62248;BME280;48237;50.140;8.486;2022-10-16T00:30:11;99290.47;;;16.28;100.00
62248;BME280;48237;50.140;8.486;2022-10-16T00:32:38;99293.69;;;16.17;100.00
62248;BME280;48237;50.140;8.486;2022-10-16T00:35:06;99292.67;;;16.21;100.00
62248;BME280;48237;50.140;8.486;2022-10-16T00:37:33;99292.94;;;14.91;100.00
62248;BME280;48237;50.140;8.486;2022-10-16T00:40:00;99298.07;;;16.01;100.00
62248;BME280;48237;50.140;8.486;2022-10-16T00:42:27;99295.39;;;15.80;100.00
62248;BME280;48237;50.140;8.486;2022-10-16T00:44:56;99294.98;;;15.44;100.00
62248;BME280;48237;50.140;8.486;2022-10-16T00:47:27;99301.13;;;15.55;100.00
62248;BME280;48237;50.140;8.486;2022-10-16T00:50:00;99292.77;;;15.36;100.00
62248;BME280;48237;50.140;8.486;2022-10-16T00:52:30;99299.10;;;15.95;100.00
62248;BME280;48237;50.140;8.486;2022-10-16T00:54:57;99290.26;;;16.45;100.00
62248;BME280;48237;50.140;8.486;2022-10-16T00:57:25;99297.06;;;15.95;100.00
62248;BME280;48237;50.140;8.486;2022-10-16T00:59:53;99298.01;;;16.63;100.00
62248;BME280;48237;50.140;8.486;2022-10-16T01:02:20;99308.11;;;16.14;100.00
62248;BME280;48237;50.140;8.486;2022-10-16T01:04:50;99313.22;;;16.18;100.00
62248;BME280;48237;50.140;8.486;2022-10-16T01:07:27;99318.90;;;15.97;100.00
62248;BME280;48237;50.140;8.486;2022-10-16T01:10:08;99322.92;;;15.98;100.00
62248;BME280;48237;50.140;8.486;2022-10-16T01:12:41;99324.95;;;16.66;100.00
62248;BME280;48237;50.140;8.486;2022-10-16T01:15:17;99326.54;;;16.18;100.00
62248;BME280;48237;50.140;8.486;2022-10-16T01:17:49;99329.97;;;15.91;100.00
62248;BME280;48237;50.140;8.486;2022-10-16T01:20:24;99323.26;;;16.05;100.00
62248;BME280;48237;50.140;8.486;2022-10-16T01:23:07;99325.02;;;15.38;100.00
62248;BME280;48237;50.140;8.486;2022-10-16T01:25:53;99316.28;;;15.90;100.00
62248;BME280;48237;50.140;8.486;2022-10-16T01:28:29;99307.83;;;16.50;100.00
62248;BME280;48237;50.140;8.486;2022-10-16T01:31:00;99308.76;;;16.57;100.00
62248;BME280;48237;50.140;8.486;2022-10-16T01:33:32;99307.54;;;15.74;100.00
62248;BME280;48237;50.140;8.486;2022-10-16T01:36:03;99302.45;;;16.09;100.00
62248;BME280;48237;50.140;8.486;2022-10-16T01:38:36;99310.66;;;16.16;100.00
62248;BME280;48237;50.140;8.486;2022-10-16T01:41:07;99313.90;;;16.55;100.00
62248;BME280;48237;50.140;8.486;2022-10-16T01:43:38;99323.01;;;15.89;100.00
62248;BME280;48237;50.140;8.486;2022-10-16T01:46:08;99329.57;;;15.70;100.00
62248;BME280;48237;50.140;8.486;2022-10-16T01:48:37;99333.37;;;16.26;100.00
62248;BME280;48237;50.140;8.486;2022-10-16T01:51:07;99336.44;;;15.77;100.00
62248;BME280;48237;50.140;8.486;2022-10-16T01:53:36;99338.55;;;15.97;100.00
62248;BME280;48237;50.140;8.486;2022-10-16T01:56:06;99328.43;;;15.85;100.00
62248;BME280;48237;50.140;8.486;2022-10-16T01:58:37;99318.92;;;15.61;100.00
62248;BME280;48237;50.140;8.486;2022-10-16T02:01:08;99317.89;;;15.38;100.00
62248;BME280;48237;50.140;8.486;2022-10-16T02:03:38;99328.31;;;15.66;100.00
62248;BME280;48237;50.140;8.486;2022-10-16T02:06:08;99331.68;;;16.44;100.00
62248;BME280;48237;50.140;8.486;2022-10-16T02:08:37;99337.24;;;15.85;100.00
62248;BME280;48237;50.140;8.486;2022-10-16T02:11:04;99337.57;;;15.84;100.00
62248;BME280;48237;50.140;8.486;2022-10-16T02:13:35;99343.07;;;15.63;100.00
62248;BME280;48237;50.140;8.486;2022-10-16T02:16:04;99345.21;;;15.76;100.00
62248;BME280;48237;50.140;8.486;2022-10-16T02:18:32;99339.99;;;16.31;100.00
62248;BME280;48237;50.140;8.486;2022-10-16T02:21:01;99348.56;;;16.12;100.00
62248;BME280;48237;50.140;8.486;2022-10-16T02:23:35;99339.30;;;16.57;100.00
62248;BME280;48237;50.140;8.486;2022-10-16T02:26:07;99340.48;;;17.03;100.00
62248;BME280;48237;50.140;8.486;2022-10-16T02:28:41;99338.15;;;15.77;100.00
62248;BME280;48237;50.140;8.486;2022-10-16T02:31:11;99347.70;;;15.50;100.00
62248;BME280;48237;50.140;8.486;2022-10-16T02:33:42;99348.02;;;15.65;100.00
62248;BME280;48237;50.140;8.486;2022-10-16T02:36:10;99344.27;;;15.56;100.00
62248;BME280;48237;50.140;8.486;2022-10-16T02:38:40;99348.42;;;15.41;100.00
62248;BME280;48237;50.140;8.486;2022-10-16T02:41:07;99348.37;;;15.34;100.00
62248;BME280;48237;50.140;8.486;2022-10-16T02:43:34;99345.88;;;15.51;100.00
62248;BME280;48237;50.140;8.486;2022-10-16T02:46:01;99348.32;;;15.67;100.00
62248;BME280;48237;50.140;8.486;2022-10-16T02:48:29;99350.04;;;15.95;100.00
62248;BME280;48237;50.140;8.486;2022-10-16T02:50:56;99343.69;;;16.44;100.00
62248;BME280;48237;50.140;8.486;2022-10-16T02:53:22;99349.03;;;15.80;100.00
62248;BME280;48237;50.140;8.486;2022-10-16T02:55:49;99351.05;;;15.82;100.00
62248;BME280;48237;50.140;8.486;2022-10-16T02:58:17;99359.35;;;15.92;100.00
62248;BME280;48237;50.140;8.486;2022-10-16T03:00:44;99368.34;;;14.94;100.00
62248;BME280;48237;50.140;8.486;2022-10-16T03:03:11;99367.13;;;16.00;100.00
62248;BME280;48237;50.140;8.486;2022-10-16T03:05:38;99363.67;;;16.06;100.00
62248;BME280;48237;50.140;8.486;2022-10-16T03:08:06;99356.84;;;15.72;100.00
62248;BME280;48237;50.140;8.486;2022-10-16T03:10:33;99349.84;;;16.18;100.00
62248;BME280;48237;50.140;8.486;2022-10-16T03:12:59;99349.40;;;15.58;100.00
62248;BME280;48237;50.140;8.486;2022-10-16T03:15:26;99353.23;;;15.45;100.00
62248;BME280;48237;50.140;8.486;2022-10-16T03:17:53;99359.60;;;15.41;100.00
62248;BME280;48237;50.140;8.486;2022-10-16T03:20:20;99362.21;;;15.75;100.00
62248;BME280;48237;50.140;8.486;2022-10-16T03:22:48;99363.44;;;15.54;100.00
62248;BME280;48237;50.140;8.486;2022-10-16T03:25:14;99372.95;;;15.61;100.00
62248;BME280;48237;50.140;8.486;2022-10-16T03:27:41;99368.75;;;16.45;100.00
62248;BME280;48237;50.140;8.486;2022-10-16T03:30:09;99368.15;;;15.75;100.00
62248;BME280;48237;50.140;8.486;2022-10-16T03:32:37;99379.04;;;15.51;100.00
62248;BME280;48237;50.140;8.486;2022-10-16T03:35:04;99375.97;;;15.83;100.00
62248;BME280;48237;50.140;8.486;2022-10-16T03:37:31;99376.97;;;16.14;100.00
62248;BME280;48237;50.140;8.486;2022-10-16T03:39:59;99377.40;;;16.50;100.00
62248;BME280;48237;50.140;8.486;2022-10-16T03:42:26;99373.96;;;15.29;100.00
62248;BME280;48237;50.140;8.486;2022-10-16T03:44:53;99374.76;;;15.37;100.00
62248;BME280;48237;50.140;8.486;2022-10-16T03:47:20;99377.35;;;15.41;100.00
62248;BME280;48237;50.140;8.486;2022-10-16T03:49:47;99380.39;;;15.35;100.00
62248;BME280;48237;50.140;8.486;2022-10-16T03:52:14;99382.91;;;15.61;100.00
62248;BME280;48237;50.140;8.486;2022-10-16T03:54:41;99378.04;;;15.99;100.00
62248;BME280;48237;50.140;8.486;2022-10-16T03:57:08;99375.14;;;16.31;100.00
62248;BME280;48237;50.140;8.486;2022-10-16T03:59:35;99376.20;;;16.90;100.00
62248;BME280;48237;50.140;8.486;2022-10-16T04:02:02;99373.97;;;16.01;100.00
62248;BME280;48237;50.140;8.486;2022-10-16T04:04:30;99377.23;;;15.57;100.00
62248;BME280;48237;50.140;8.486;2022-10-16T04:06:57;99379.72;;;15.50;100.00
62248;BME280;48237;50.140;8.486;2022-10-16T04:09:24;99386.85;;;15.44;100.00
62248;BME280;48237;50.140;8.486;2022-10-16T04:11:51;99383.25;;;15.56;100.00
62248;BME280;48237;50.140;8.486;2022-10-16T04:14:19;99375.65;;;15.08;100.00
62248;BME280;48237;50.140;8.486;2022-10-16T04:16:46;99369.45;;;13.99;100.00
62248;BME280;48237;50.140;8.486;2022-10-16T04:19:13;99382.50;;;14.43;100.00
62248;BME280;48237;50.140;8.486;2022-10-16T04:21:41;99389.20;;;15.03;100.00
62248;BME280;48237;50.140;8.486;2022-10-16T04:24:08;99394.65;;;16.07;100.00
62248;BME280;48237;50.140;8.486;2022-10-16T04:26:34;99400.64;;;16.08;100.00
62248;BME280;48237;50.140;8.486;2022-10-16T04:29:01;99404.31;;;16.65;100.00
62248;BME280;48237;50.140;8.486;2022-10-16T04:31:29;99400.71;;;16.85;100.00
62248;BME280;48237;50.140;8.486;2022-10-16T04:33:56;99406.94;;;15.56;100.00
62248;BME280;48237;50.140;8.486;2022-10-16T04:36:23;99407.40;;;15.69;100.00
62248;BME280;48237;50.140;8.486;2022-10-16T04:38:51;99407.66;;;16.33;100.00
62248;BME280;48237;50.140;8.486;2022-10-16T04:41:18;99404.80;;;16.68;100.00
62248;BME280;48237;50.140;8.486;2022-10-16T04:43:45;99402.37;;;16.22;100.00
62248;BME280;48237;50.140;8.486;2022-10-16T04:46:12;99404.94;;;16.69;100.00
62248;BME280;48237;50.140;8.486;2022-10-16T04:48:40;99401.99;;;16.38;100.00
62248;BME280;48237;50.140;8.486;2022-10-16T04:51:06;99400.04;;;15.89;100.00
62248;BME280;48237;50.140;8.486;2022-10-16T04:53:33;99399.85;;;16.02;100.00
62248;BME280;48237;50.140;8.486;2022-10-16T04:56:00;99405.02;;;16.45;100.00
62248;BME280;48237;50.140;8.486;2022-10-16T04:58:27;99407.02;;;15.82;100.00
62248;BME280;48237;50.140;8.486;2022-10-16T05:00:54;99412.47;;;15.33;100.00
62248;BME280;48237;50.140;8.486;2022-10-16T05:03:21;99418.61;;;15.58;100.00
62248;BME280;48237;50.140;8.486;2022-10-16T05:05:51;99420.95;;;15.65;100.00
62248;BME280;48237;50.140;8.486;2022-10-16T05:08:29;99416.41;;;15.66;100.00
62248;BME280;48237;50.140;8.486;2022-10-16T05:11:08;99417.63;;;16.02;100.00
62248;BME280;48237;50.140;8.486;2022-10-16T05:13:46;99417.34;;;15.73;100.00
62248;BME280;48237;50.140;8.486;2022-10-16T05:16:23;99410.17;;;14.92;100.00
62248;BME280;48237;50.140;8.486;2022-10-16T05:18:52;99405.15;;;15.06;100.00
62248;BME280;48237;50.140;8.486;2022-10-16T05:21:23;99414.51;;;14.80;100.00
62248;BME280;48237;50.140;8.486;2022-10-16T05:24:00;99412.53;;;15.59;100.00
62248;BME280;48237;50.140;8.486;2022-10-16T05:26:29;99408.24;;;17.10;100.00
62248;BME280;48237;50.140;8.486;2022-10-16T05:28:57;99417.32;;;16.56;100.00
62248;BME280;48237;50.140;8.486;2022-10-16T05:31:30;99422.19;;;16.77;100.00
62248;BME280;48237;50.140;8.486;2022-10-16T05:34:09;99411.81;;;16.11;100.00
62248;BME280;48237;50.140;8.486;2022-10-16T05:36:38;99407.94;;;15.56;100.00
62248;BME280;48237;50.140;8.486;2022-10-16T05:39:28;99418.13;;;15.89;100.00
62248;BME280;48237;50.140;8.486;2022-10-16T05:41:57;99419.31;;;15.79;100.00
62248;BME280;48237;50.140;8.486;2022-10-16T05:44:24;99415.63;;;15.24;100.00
62248;BME280;48237;50.140;8.486;2022-10-16T05:46:52;99420.25;;;15.48;100.00
62248;BME280;48237;50.140;8.486;2022-10-16T05:49:19;99424.45;;;15.73;100.00
62248;BME280;48237;50.140;8.486;2022-10-16T05:51:46;99424.39;;;15.47;100.00
62248;BME280;48237;50.140;8.486;2022-10-16T05:54:13;99423.54;;;15.57;100.00
62248;BME280;48237;50.140;8.486;2022-10-16T05:56:40;99434.84;;;14.99;100.00
62248;BME280;48237;50.140;8.486;2022-10-16T05:59:07;99436.76;;;15.55;100.00
62248;BME280;48237;50.140;8.486;2022-10-16T06:01:34;99440.10;;;16.33;100.00
62248;BME280;48237;50.140;8.486;2022-10-16T06:04:02;99449.03;;;16.48;100.00
62248;BME280;48237;50.140;8.486;2022-10-16T06:06:29;99447.80;;;15.61;100.00
62248;BME280;48237;50.140;8.486;2022-10-16T06:08:57;99449.71;;;15.45;100.00
62248;BME280;48237;50.140;8.486;2022-10-16T06:11:27;99444.67;;;15.99;100.00
62248;BME280;48237;50.140;8.486;2022-10-16T06:13:56;99440.98;;;14.69;100.00
62248;BME280;48237;50.140;8.486;2022-10-16T06:16:24;99456.32;;;15.31;100.00
62248;BME280;48237;50.140;8.486;2022-10-16T06:18:52;99455.91;;;16.24;100.00
62248;BME280;48237;50.140;8.486;2022-10-16T06:21:22;99461.38;;;15.88;100.00
62248;BME280;48237;50.140;8.486;2022-10-16T06:23:49;99462.57;;;16.77;100.00
62248;BME280;48237;50.140;8.486;2022-10-16T06:26:18;99464.19;;;16.11;100.00
62248;BME280;48237;50.140;8.486;2022-10-16T06:28:47;99465.46;;;16.96;100.00
62248;BME280;48237;50.140;8.486;2022-10-16T06:31:15;99466.34;;;16.19;100.00
62248;BME280;48237;50.140;8.486;2022-10-16T06:33:42;99464.59;;;15.96;100.00
62248;BME280;48237;50.140;8.486;2022-10-16T06:36:10;99469.69;;;15.36;100.00
62248;BME280;48237;50.140;8.486;2022-10-16T06:38:38;99463.33;;;15.13;100.00
62248;BME280;48237;50.140;8.486;2022-10-16T06:41:06;99459.88;;;14.70;100.00
62248;BME280;48237;50.140;8.486;2022-10-16T06:43:34;99467.33;;;15.35;100.00
62248;BME280;48237;50.140;8.486;2022-10-16T06:46:03;99471.57;;;15.30;100.00
62248;BME280;48237;50.140;8.486;2022-10-16T06:48:31;99475.31;;;15.52;100.00
62248;BME280;48237;50.140;8.486;2022-10-16T06:51:00;99471.27;;;15.45;100.00
62248;BME280;48237;50.140;8.486;2022-10-16T06:53:29;99476.81;;;14.48;100.00
62248;BME280;48237;50.140;8.486;2022-10-16T06:55:56;99480.95;;;14.51;100.00
62248;BME280;48237;50.140;8.486;2022-10-16T06:58:24;99481.09;;;15.52;100.00
62248;BME280;48237;50.140;8.486;2022-10-16T07:00:55;99481.35;;;16.45;100.00
62248;BME280;48237;50.140;8.486;2022-10-16T07:03:23;99487.69;;;15.60;100.00
62248;BME280;48237;50.140;8.486;2022-10-16T07:05:50;99491.62;;;16.25;100.00
62248;BME280;48237;50.140;8.486;2022-10-16T07:08:17;99496.94;;;16.85;100.00
62248;BME280;48237;50.140;8.486;2022-10-16T07:10:44;99496.07;;;16.95;100.00
62248;BME280;48237;50.140;8.486;2022-10-16T07:13:11;99497.38;;;17.26;100.00
62248;BME280;48237;50.140;8.486;2022-10-16T07:15:38;99502.65;;;17.31;100.00
62248;BME280;48237;50.140;8.486;2022-10-16T07:18:05;99503.67;;;15.57;100.00
62248;BME280;48237;50.140;8.486;2022-10-16T07:20:32;99514.12;;;16.32;100.00
62248;BME280;48237;50.140;8.486;2022-10-16T07:22:59;99522.60;;;17.54;100.00
62248;BME280;48237;50.140;8.486;2022-10-16T07:25:26;99527.06;;;16.60;100.00
62248;BME280;48237;50.140;8.486;2022-10-16T07:27:53;99529.14;;;15.97;100.00
62248;BME280;48237;50.140;8.486;2022-10-16T07:30:20;99538.29;;;16.21;100.00
62248;BME280;48237;50.140;8.486;2022-10-16T07:32:47;99542.10;;;17.58;100.00
62248;BME280;48237;50.140;8.486;2022-10-16T07:35:14;99541.56;;;15.27;100.00
62248;BME280;48237;50.140;8.486;2022-10-16T07:37:44;99547.23;;;15.66;100.00
62248;BME280;48237;50.140;8.486;2022-10-16T07:40:12;99548.82;;;16.02;100.00
62248;BME280;48237;50.140;8.486;2022-10-16T07:42:39;99555.74;;;17.08;100.00
62248;BME280;48237;50.140;8.486;2022-10-16T07:45:07;99554.85;;;16.12;100.00
62248;BME280;48237;50.140;8.486;2022-10-16T07:47:34;99552.95;;;15.34;100.00
62248;BME280;48237;50.140;8.486;2022-10-16T07:50:02;99561.08;;;15.67;100.00
62248;BME280;48237;50.140;8.486;2022-10-16T07:52:29;99564.83;;;16.23;100.00
62248;BME280;48237;50.140;8.486;2022-10-16T07:54:57;99570.18;;;16.61;100.00
62248;BME280;48237;50.140;8.486;2022-10-16T07:57:24;99575.35;;;16.63;100.00
62248;BME280;48237;50.140;8.486;2022-10-16T07:59:51;99583.28;;;17.12;100.00
62248;BME280;48237;50.140;8.486;2022-10-16T08:02:17;99592.35;;;17.31;100.00
62248;BME280;48237;50.140;8.486;2022-10-16T08:04:46;99591.34;;;17.55;100.00
62248;BME280;48237;50.140;8.486;2022-10-16T08:07:14;99592.82;;;17.21;100.00
62248;BME280;48237;50.140;8.486;2022-10-16T08:09:41;99588.78;;;16.63;100.00
62248;BME280;48237;50.140;8.486;2022-10-16T08:12:08;99596.76;;;15.16;100.00
62248;BME280;48237;50.140;8.486;2022-10-16T08:14:35;99599.12;;;15.52;100.00
62248;BME280;48237;50.140;8.486;2022-10-16T08:17:02;99604.95;;;16.49;100.00
62248;BME280;48237;50.140;8.486;2022-10-16T08:19:29;99609.96;;;16.78;100.00
62248;BME280;48237;50.140;8.486;2022-10-16T08:21:57;99612.56;;;17.31;100.00
62248;BME280;48237;50.140;8.486;2022-10-16T08:24:24;99612.93;;;16.68;100.00
62248;BME280;48237;50.140;8.486;2022-10-16T08:26:53;99624.01;;;16.18;100.00
62248;BME280;48237;50.140;8.486;2022-10-16T08:29:20;99621.04;;;17.26;100.00
62248;BME280;48237;50.140;8.486;2022-10-16T08:31:47;99627.01;;;18.01;100.00
62248;BME280;48237;50.140;8.486;2022-10-16T08:34:14;99625.11;;;17.21;100.00
62248;BME280;48237;50.140;8.486;2022-10-16T08:36:41;99624.05;;;16.73;100.00
62248;BME280;48237;50.140;8.486;2022-10-16T08:39:08;99624.58;;;15.72;100.00
62248;BME280;48237;50.140;8.486;2022-10-16T08:42:01;99635.57;;;16.00;100.00
62248;BME280;48237;50.140;8.486;2022-10-16T08:44:42;99642.88;;;16.45;100.00
62248;BME280;48237;50.140;8.486;2022-10-16T08:47:19;99646.16;;;16.97;100.00
62248;BME280;48237;50.140;8.486;2022-10-16T08:49:57;99650.57;;;17.01;100.00
62248;BME280;48237;50.140;8.486;2022-10-16T08:52:29;99644.17;;;15.79;100.00
62248;BME280;48237;50.140;8.486;2022-10-16T08:54:57;99650.97;;;15.29;100.00
62248;BME280;48237;50.140;8.486;2022-10-16T08:57:25;99649.02;;;15.96;100.00
62248;BME280;48237;50.140;8.486;2022-10-16T08:59:53;99648.14;;;16.47;100.00
62248;BME280;48237;50.140;8.486;2022-10-16T09:02:26;99649.63;;;16.12;100.00
62248;BME280;48237;50.140;8.486;2022-10-16T09:05:10;99651.04;;;16.82;100.00
62248;BME280;48237;50.140;8.486;2022-10-16T09:07:48;99658.67;;;16.90;100.00
62248;BME280;48237;50.140;8.486;2022-10-16T09:10:30;99669.65;;;16.29;100.00
62248;BME280;48237;50.140;8.486;2022-10-16T09:13:08;99672.72;;;16.71;100.00
62248;BME280;48237;50.140;8.486;2022-10-16T09:15:46;99675.54;;;17.31;100.00
62248;BME280;48237;50.140;8.486;2022-10-16T09:18:24;99681.66;;;17.91;100.00
62248;BME280;48237;50.140;8.486;2022-10-16T09:21:00;99692.17;;;17.63;100.00
62248;BME280;48237;50.140;8.486;2022-10-16T09:23:34;99691.01;;;17.34;100.00
62248;BME280;48237;50.140;8.486;2022-10-16T09:26:02;99692.99;;;17.09;100.00
62248;BME280;48237;50.140;8.486;2022-10-16T09:28:31;99698.86;;;16.48;100.00
62248;BME280;48237;50.140;8.486;2022-10-16T09:30:58;99700.11;;;17.75;100.00
62248;BME280;48237;50.140;8.486;2022-10-16T09:33:29;99706.19;;;16.83;100.00
62248;BME280;48237;50.140;8.486;2022-10-16T09:35:57;99703.99;;;17.44;100.00
62248;BME280;48237;50.140;8.486;2022-10-16T09:38:27;99706.24;;;17.16;100.00
62248;BME280;48237;50.140;8.486;2022-10-16T09:40:55;99701.46;;;17.38;100.00
62248;BME280;48237;50.140;8.486;2022-10-16T09:43:26;99702.31;;;16.74;100.00
62248;BME280;48237;50.140;8.486;2022-10-16T09:45:56;99709.74;;;15.43;100.00
62248;BME280;48237;50.140;8.486;2022-10-16T09:48:26;99717.05;;;15.41;100.00
62248;BME280;48237;50.140;8.486;2022-10-16T09:50:58;99714.51;;;15.62;100.00
62248;BME280;48237;50.140;8.486;2022-10-16T09:53:37;99717.32;;;16.55;100.00
62248;BME280;48237;50.140;8.486;2022-10-16T09:56:05;99716.46;;;16.86;100.00
62248;BME280;48237;50.140;8.486;2022-10-16T09:58:33;99717.99;;;16.90;100.00
62248;BME280;48237;50.140;8.486;2022-10-16T10:01:00;99718.77;;;16.57;100.00
62248;BME280;48237;50.140;8.486;2022-10-16T10:03:34;99717.21;;;17.47;100.00
62248;BME280;48237;50.140;8.486;2022-10-16T10:06:14;99720.76;;;15.33;100.00
62248;BME280;48237;50.140;8.486;2022-10-16T10:08:54;99717.97;;;17.35;100.00
62248;BME280;48237;50.140;8.486;2022-10-16T10:11:38;99722.02;;;16.33;100.00
62248;BME280;48237;50.140;8.486;2022-10-16T10:14:06;99721.23;;;16.04;100.00
62248;BME280;48237;50.140;8.486;2022-10-16T10:16:38;99713.16;;;15.97;100.00
62248;BME280;48237;50.140;8.486;2022-10-16T10:19:09;99709.78;;;16.24;100.00
62248;BME280;48237;50.140;8.486;2022-10-16T10:21:40;99708.17;;;17.28;100.00
62248;BME280;48237;50.140;8.486;2022-10-16T10:24:10;99707.21;;;18.05;100.00
62248;BME280;48237;50.140;8.486;2022-10-16T10:26:40;99707.52;;;17.80;100.00
62248;BME280;48237;50.140;8.486;2022-10-16T10:29:14;99709.45;;;16.75;100.00
62248;BME280;48237;50.140;8.486;2022-10-16T10:31:48;99710.55;;;16.35;100.00
62248;BME280;48237;50.140;8.486;2022-10-16T10:34:27;99709.78;;;17.62;100.00
62248;BME280;48237;50.140;8.486;2022-10-16T10:37:04;99716.45;;;16.90;100.00
62248;BME280;48237;50.140;8.486;2022-10-16T10:39:38;99712.68;;;17.75;100.00
62248;BME280;48237;50.140;8.486;2022-10-16T10:42:18;99706.33;;;16.90;100.00
62248;BME280;48237;50.140;8.486;2022-10-16T10:44:57;99711.13;;;17.69;100.00
62248;BME280;48237;50.140;8.486;2022-10-16T10:47:38;99713.61;;;17.93;100.00
62248;BME280;48237;50.140;8.486;2022-10-16T10:50:17;99711.24;;;16.97;100.00
62248;BME280;48237;50.140;8.486;2022-10-16T10:52:56;99716.93;;;15.11;100.00
62248;BME280;48237;50.140;8.486;2022-10-16T10:55:33;99711.67;;;16.44;100.00
62248;BME280;48237;50.140;8.486;2022-10-16T10:58:21;99712.34;;;18.03;100.00
62248;BME280;48237;50.140;8.486;2022-10-16T11:00:57;99721.01;;;17.94;100.00
62248;BME280;48237;50.140;8.486;2022-10-16T11:03:40;99722.88;;;16.06;100.00
62248;BME280;48237;50.140;8.486;2022-10-16T11:06:13;99717.54;;;16.91;100.00
62248;BME280;48237;50.140;8.486;2022-10-16T11:08:46;99711.66;;;17.10;100.00
62248;BME280;48237;50.140;8.486;2022-10-16T11:11:17;99715.57;;;16.64;100.00
62248;BME280;48237;50.140;8.486;2022-10-16T11:13:54;99712.33;;;17.32;100.00
62248;BME280;48237;50.140;8.486;2022-10-16T11:16:27;99713.92;;;17.73;100.00
62248;BME280;48237;50.140;8.486;2022-10-16T11:18:59;99709.74;;;17.50;100.00
62248;BME280;48237;50.140;8.486;2022-10-16T11:21:34;99703.33;;;16.76;100.00
62248;BME280;48237;50.140;8.486;2022-10-16T11:24:09;99700.54;;;18.95;100.00
62248;BME280;48237;50.140;8.486;2022-10-16T11:26:42;99701.15;;;17.83;100.00
62248;BME280;48237;50.140;8.486;2022-10-16T11:29:15;99700.51;;;16.25;100.00
62248;BME280;48237;50.140;8.486;2022-10-16T11:31:48;99702.65;;;16.65;100.00
62248;BME280;48237;50.140;8.486;2022-10-16T11:34:24;99706.70;;;16.98;100.00
62248;BME280;48237;50.140;8.486;2022-10-16T11:36:57;99707.26;;;17.87;100.00
62248;BME280;48237;50.140;8.486;2022-10-16T11:39:27;99706.07;;;18.08;100.00
62248;BME280;48237;50.140;8.486;2022-10-16T11:42:01;99706.88;;;17.79;100.00
62248;BME280;48237;50.140;8.486;2022-10-16T11:44:38;99707.33;;;18.06;100.00
62248;BME280;48237;50.140;8.486;2022-10-16T11:47:24;99701.94;;;19.04;100.00
62248;BME280;48237;50.140;8.486;2022-10-16T11:49:56;99709.16;;;16.91;100.00
62248;BME280;48237;50.140;8.486;2022-10-16T11:52:30;99710.05;;;17.94;100.00
62248;BME280;48237;50.140;8.486;2022-10-16T11:55:09;99703.70;;;17.86;100.00
62248;BME280;48237;50.140;8.486;2022-10-16T11:57:45;99702.25;;;17.51;100.00
62248;BME280;48237;50.140;8.486;2022-10-16T12:00:21;99700.43;;;17.38;100.00
62248;BME280;48237;50.140;8.486;2022-10-16T12:02:56;99704.70;;;18.21;100.00
62248;BME280;48237;50.140;8.486;2022-10-16T12:05:35;99705.16;;;17.43;100.00
62248;BME280;48237;50.140;8.486;2022-10-16T12:08:11;99708.75;;;18.28;100.00
62248;BME280;48237;50.140;8.486;2022-10-16T12:10:42;99705.77;;;18.70;100.00
62248;BME280;48237;50.140;8.486;2022-10-16T12:13:41;99712.51;;;17.21;100.00
62248;BME280;48237;50.140;8.486;2022-10-16T12:16:26;99711.73;;;17.02;100.00
62248;BME280;48237;50.140;8.486;2022-10-16T12:19:10;99712.07;;;18.40;100.00
62248;BME280;48237;50.140;8.486;2022-10-16T12:21:38;99715.12;;;18.98;100.00
62248;BME280;48237;50.140;8.486;2022-10-16T12:24:06;99713.80;;;18.97;100.00
62248;BME280;48237;50.140;8.486;2022-10-16T12:26:36;99716.43;;;17.94;100.00
62248;BME280;48237;50.140;8.486;2022-10-16T12:29:17;99710.29;;;19.37;100.00
62248;BME280;48237;50.140;8.486;2022-10-16T12:31:49;99713.01;;;19.36;100.00
62248;BME280;48237;50.140;8.486;2022-10-16T12:34:22;99728.17;;;18.33;100.00
62248;BME280;48237;50.140;8.486;2022-10-16T12:36:51;99728.09;;;18.89;100.00
62248;BME280;48237;50.140;8.486;2022-10-16T12:39:21;99722.90;;;19.52;100.00
62248;BME280;48237;50.140;8.486;2022-10-16T12:42:01;99719.46;;;19.09;100.00
62248;BME280;48237;50.140;8.486;2022-10-16T12:44:33;99722.62;;;20.10;100.00
62248;BME280;48237;50.140;8.486;2022-10-16T12:47:02;99724.42;;;20.18;100.00
62248;BME280;48237;50.140;8.486;2022-10-16T12:49:32;99725.68;;;19.46;100.00
62248;BME280;48237;50.140;8.486;2022-10-16T12:51:59;99731.85;;;18.01;100.00
62248;BME280;48237;50.140;8.486;2022-10-16T12:54:29;99727.70;;;19.58;100.00
62248;BME280;48237;50.140;8.486;2022-10-16T12:57:08;99720.98;;;19.99;100.00
62248;BME280;48237;50.140;8.486;2022-10-16T12:59:42;99719.48;;;19.37;100.00
62248;BME280;48237;50.140;8.486;2022-10-16T13:04:47;99723.14;;;20.49;100.00
62248;BME280;48237;50.140;8.486;2022-10-16T13:07:31;99717.40;;;20.33;100.00
62248;BME280;48237;50.140;8.486;2022-10-16T13:10:10;99720.31;;;20.02;100.00